Alamo, Georgia
Current Conditions -  °F | °C
As of 6:55 PM on Sunday 21 Dec 2014 (Local Time) from KAZE Reporting Station
Drizzle Drizzle  
Wind Chill: 46°   Ceiling: 400
Heat Index: 49°   Visibility: 3mi
Dew Point: 49°   Wind: 8mph
Humidity: 100%   Direction: 80°E
Pressure: 30.09"   Gusts: NA
Location:  32.15°N, 82.78°W
Report Text: KAZE 212355Z AUTO 08007KT 3SM -DZ OVC004 10/10 A3009 RMK AO2 T00970097 10328 21050
Loading
Personal Weather Stations






























Interactive Weather Map New forecast layout! Learn more

10-Day Weather Forecast

Advertisements
Track Severe Weather on mobile